createdAt,value
2018-01-31T01:53:40.778Z,1.27
2018-01-31T01:56:09.244Z,1.25
2018-01-31T01:58:38.687Z,1.25
2018-01-31T02:01:07.770Z,1.24
2018-01-31T02:03:36.883Z,1.28
2018-01-31T02:06:05.644Z,1.34
2018-01-31T02:08:34.617Z,1.41
2018-01-31T02:11:02.642Z,1.44
2018-01-31T02:13:34.360Z,1.48
2018-01-31T02:16:05.572Z,1.55
2018-01-31T02:18:34.414Z,1.60
2018-01-31T02:21:04.709Z,1.58
2018-01-31T02:23:34.596Z,1.56
2018-01-31T02:26:09.677Z,1.56
2018-01-31T02:28:38.616Z,1.54
2018-01-31T02:31:08.696Z,1.55
2018-01-31T02:33:38.411Z,1.50
2018-01-31T02:36:08.671Z,1.49
2018-01-31T02:38:49.090Z,1.49
2018-01-31T02:43:52.171Z,1.52
2018-01-31T02:46:22.555Z,1.53
2018-01-31T02:48:51.585Z,1.51
2018-01-31T02:51:22.225Z,1.47
2018-01-31T02:53:51.581Z,1.43
2018-01-31T02:56:21.006Z,1.40
2018-01-31T02:58:50.826Z,1.35
2018-01-31T03:01:20.980Z,1.33
2018-01-31T03:03:55.299Z,1.35
2018-01-31T03:06:23.948Z,1.36
2018-01-31T03:08:56.063Z,1.36
2018-01-31T03:11:25.670Z,1.35
2018-01-31T03:13:54.847Z,1.37
2018-01-31T03:16:26.699Z,1.40
2018-01-31T03:18:54.740Z,1.41
2018-01-31T03:21:26.777Z,1.42
2018-01-31T03:23:54.874Z,1.47
2018-01-31T03:26:23.754Z,1.52
2018-01-31T03:28:54.828Z,1.54
2018-01-31T03:31:25.684Z,1.61
2018-01-31T03:33:56.775Z,1.66
2018-01-31T03:36:25.814Z,1.68
2018-01-31T03:38:56.084Z,1.72
2018-01-31T03:41:24.401Z,1.77
2018-01-31T03:43:53.306Z,1.81
2018-01-31T03:46:23.948Z,1.85
2018-01-31T03:48:53.743Z,1.88
2018-01-31T03:51:23.502Z,1.90
2018-01-31T03:53:52.016Z,1.91
2018-01-31T03:56:23.710Z,1.94
2018-01-31T03:58:52.712Z,1.94
2018-01-31T04:01:23.310Z,1.96
2018-01-31T04:03:52.793Z,2.01
2018-01-31T04:06:21.577Z,2.05
2018-01-31T04:08:49.929Z,2.11
2018-01-31T04:11:19.804Z,2.14
2018-01-31T04:13:50.348Z,2.20
2018-01-31T04:16:18.736Z,2.22
2018-01-31T04:18:46.870Z,2.24
2018-01-31T04:21:17.034Z,2.27
2018-01-31T04:23:45.769Z,2.31
2018-01-31T04:26:14.438Z,2.38
2018-01-31T04:28:46.187Z,2.41
2018-01-31T04:31:14.856Z,2.46
2018-01-31T04:33:49.490Z,2.49
2018-01-31T04:36:18.393Z,2.51
2018-01-31T04:38:49.566Z,2.55
2018-01-31T04:41:20.810Z,2.59
2018-01-31T04:43:51.775Z,2.67
2018-01-31T04:46:21.804Z,2.72
2018-01-31T04:48:50.713Z,2.78
2018-01-31T04:51:20.656Z,2.82
2018-01-31T04:53:49.148Z,2.83
2018-01-31T04:56:17.305Z,2.87
2018-01-31T04:58:53.845Z,2.87
2018-01-31T05:01:23.484Z,2.88
2018-01-31T05:03:52.943Z,2.89
2018-01-31T05:06:20.702Z,2.90
2018-01-31T05:08:48.513Z,2.89
2018-01-31T05:11:16.253Z,2.90
2018-01-31T05:13:44.073Z,2.94
2018-01-31T05:16:11.824Z,2.92
2018-01-31T05:18:39.716Z,2.92
2018-01-31T05:21:07.484Z,2.92
2018-01-31T05:23:35.323Z,2.95
2018-01-31T05:26:03.088Z,2.96
2018-01-31T05:28:31.012Z,2.95
2018-01-31T05:30:58.763Z,2.98
2018-01-31T05:33:26.726Z,2.99
2018-01-31T05:35:54.638Z,2.99
2018-01-31T05:38:22.441Z,3.03
2018-01-31T05:40:50.215Z,3.03
2018-01-31T05:43:19.097Z,3.06
2018-01-31T05:45:46.837Z,3.09
2018-01-31T05:48:14.592Z,3.11
2018-01-31T05:50:42.485Z,3.10
2018-01-31T05:53:10.352Z,3.12
2018-01-31T05:55:38.293Z,3.16
2018-01-31T05:58:06.064Z,3.21
2018-01-31T06:00:33.860Z,3.23
2018-01-31T06:03:01.610Z,3.27
2018-01-31T06:05:29.408Z,3.31
2018-01-31T06:07:57.168Z,3.35
2018-01-31T06:10:24.980Z,3.37
2018-01-31T06:12:52.844Z,3.38
2018-01-31T06:15:20.732Z,3.44
2018-01-31T06:17:48.471Z,3.48
2018-01-31T06:20:16.342Z,3.52
2018-01-31T06:22:44.202Z,3.54
2018-01-31T06:25:12.022Z,3.61
2018-01-31T06:27:39.822Z,3.64
2018-01-31T06:30:07.745Z,3.82
2018-01-31T06:32:35.513Z,3.88
2018-01-31T06:35:03.492Z,3.85
2018-01-31T06:37:31.357Z,3.96
2018-01-31T06:39:59.245Z,3.77
2018-01-31T06:42:27.022Z,3.68
2018-01-31T06:44:54.827Z,3.64
2018-01-31T06:47:22.790Z,3.61
2018-01-31T06:49:50.597Z,3.59
2018-01-31T06:52:18.469Z,3.56
2018-01-31T06:54:46.286Z,3.60
2018-01-31T06:57:14.142Z,3.61
2018-01-31T06:59:42.085Z,3.61
2018-01-31T07:02:09.828Z,3.58
2018-01-31T07:04:37.801Z,3.56
2018-01-31T07:07:05.536Z,3.55
2018-01-31T07:09:33.335Z,3.54
2018-01-31T07:12:01.074Z,3.53
2018-01-31T07:14:28.871Z,3.51
2018-01-31T07:16:56.628Z,3.51
2018-01-31T07:19:24.406Z,3.49
2018-01-31T07:21:52.207Z,3.55
2018-01-31T07:24:20.025Z,3.51
2018-01-31T07:26:47.781Z,3.49
2018-01-31T07:29:15.560Z,3.51
2018-01-31T07:31:43.508Z,3.53
2018-01-31T07:34:11.423Z,3.55
2018-01-31T07:36:39.653Z,3.56
2018-01-31T07:39:07.595Z,3.58
2018-01-31T07:41:35.558Z,3.61
2018-01-31T07:44:03.460Z,3.63
2018-01-31T07:46:31.409Z,3.67
2018-01-31T07:48:59.581Z,3.70
2018-01-31T07:51:27.528Z,3.72
2018-01-31T07:53:55.418Z,3.73
2018-01-31T07:56:23.331Z,3.75
2018-01-31T07:58:51.254Z,3.77
2018-01-31T08:01:19.309Z,3.80
2018-01-31T08:03:47.203Z,3.83
2018-01-31T08:06:15.150Z,3.86
2018-01-31T08:08:43.039Z,3.90
2018-01-31T08:11:11.051Z,3.93
2018-01-31T08:13:39.224Z,3.95
2018-01-31T08:16:07.174Z,3.99
2018-01-31T08:18:35.077Z,4.02
2018-01-31T08:21:03.134Z,4.07
2018-01-31T08:23:30.983Z,4.13
2018-01-31T08:25:59.338Z,4.17
2018-01-31T08:28:27.224Z,4.19
2018-01-31T08:30:55.126Z,4.26
2018-01-31T08:33:23.014Z,4.32
2018-01-31T08:35:51.248Z,4.40
2018-01-31T08:38:19.307Z,4.43
2018-01-31T08:40:47.315Z,4.47
2018-01-31T08:43:15.190Z,4.52
2018-01-31T08:45:43.217Z,4.58
2018-01-31T08:48:11.145Z,4.65
2018-01-31T08:50:39.117Z,4.69
2018-01-31T08:53:07.103Z,4.73
2018-01-31T08:55:35.090Z,4.79
2018-01-31T08:58:03.100Z,4.86
2018-01-31T09:00:31.021Z,4.87
2018-01-31T09:02:58.887Z,4.95
2018-01-31T09:05:44.545Z,5.05
2018-01-31T09:08:13.009Z,5.13
2018-01-31T09:10:40.937Z,5.21
2018-01-31T09:13:08.895Z,5.29
2018-01-31T09:15:36.833Z,5.33
2018-01-31T09:18:04.768Z,5.39
2018-01-31T09:20:32.639Z,5.45
2018-01-31T09:23:00.587Z,5.51
2018-01-31T09:25:28.577Z,5.57
2018-01-31T09:27:56.517Z,5.60
2018-01-31T09:30:24.555Z,5.65
2018-01-31T09:32:52.512Z,5.73
2018-01-31T09:35:20.646Z,5.82
2018-01-31T09:37:48.655Z,5.87
2018-01-31T09:40:16.608Z,5.94
2018-01-31T09:42:44.577Z,6.02
2018-01-31T09:45:12.475Z,6.07
2018-01-31T09:47:40.481Z,6.11
2018-01-31T09:50:08.386Z,6.13
2018-01-31T09:52:36.370Z,6.11
2018-01-31T09:55:04.292Z,6.12
2018-01-31T09:57:32.246Z,6.16
2018-01-31T10:00:00.528Z,6.21
2018-01-31T10:02:28.488Z,6.25
2018-01-31T10:04:56.508Z,6.32
2018-01-31T10:07:24.548Z,6.41
2018-01-31T10:09:52.519Z,6.43
2018-01-31T10:12:20.542Z,6.43
2018-01-31T10:14:48.484Z,6.44
2018-01-31T10:17:16.450Z,6.49
2018-01-31T10:19:44.359Z,6.58
2018-01-31T10:22:12.352Z,6.63
2018-01-31T10:24:40.285Z,6.67
2018-01-31T10:27:08.245Z,6.68
2018-01-31T10:29:36.152Z,6.70
2018-01-31T10:32:04.191Z,6.71
2018-01-31T10:34:32.085Z,6.70
2018-01-31T10:37:00.055Z,6.72
2018-01-31T10:39:27.914Z,6.79
2018-01-31T10:41:55.900Z,6.88
2018-01-31T10:44:23.857Z,6.98
2018-01-31T10:46:51.799Z,7.06
2018-01-31T10:49:19.756Z,7.13
2018-01-31T10:51:47.748Z,7.20
2018-01-31T10:59:11.764Z,7.43
2018-01-31T11:01:39.776Z,7.50
2018-01-31T11:04:07.718Z,7.55
2018-01-31T11:06:36.741Z,7.60
2018-01-31T11:09:04.745Z,7.70
2018-01-31T11:11:32.646Z,7.81
2018-01-31T11:14:00.545Z,7.93
2018-01-31T11:16:28.609Z,8.08
2018-01-31T11:18:56.462Z,8.17
2018-01-31T11:21:24.419Z,8.24
2018-01-31T11:23:52.338Z,8.31
2018-01-31T11:26:20.268Z,8.38
2018-01-31T11:28:48.199Z,8.43
2018-01-31T11:31:16.068Z,8.50
2018-01-31T11:33:43.992Z,8.55
2018-01-31T11:36:11.929Z,8.55
2018-01-31T11:38:39.916Z,8.52
2018-01-31T11:41:07.800Z,8.50
2018-01-31T11:43:35.775Z,8.49
2018-01-31T11:46:03.568Z,8.50
2018-01-31T11:48:31.395Z,8.53
2018-01-31T11:50:59.267Z,8.57
2018-01-31T11:53:27.160Z,8.55
2018-01-31T11:55:55.013Z,8.52
2018-01-31T11:58:22.874Z,8.51
2018-01-31T12:00:50.691Z,8.53
2018-01-31T12:03:18.594Z,8.58
2018-01-31T12:05:46.503Z,8.59
2018-01-31T12:08:14.352Z,8.63
2018-01-31T12:10:42.299Z,8.65
2018-01-31T12:13:21.707Z,8.67
2018-01-31T12:16:01.380Z,8.66
2018-01-31T12:18:41.153Z,8.62
2018-01-31T12:21:20.896Z,8.57
2018-01-31T12:24:00.551Z,8.54
2018-01-31T12:26:40.412Z,8.49
2018-01-31T12:29:20.145Z,8.47
2018-01-31T12:35:02.185Z,8.46
2018-01-31T12:40:34.896Z,8.47
2018-01-31T12:43:02.177Z,8.47
2018-01-31T12:45:29.629Z,8.48
2018-01-31T12:48:22.058Z,8.48
2018-01-31T12:51:13.418Z,8.41
2018-01-31T12:56:56.146Z,7.29
2018-01-31T12:59:35.717Z,7.45
2018-01-31T13:02:15.516Z,7.55
2018-01-31T13:04:55.113Z,7.61
2018-01-31T13:10:30.295Z,7.60
2018-01-31T13:13:09.952Z,7.57
2018-01-31T13:16:01.713Z,7.51
2018-01-31T13:18:41.268Z,7.46
2018-01-31T13:21:20.757Z,7.42
2018-01-31T13:27:03.324Z,7.36
2018-01-31T13:29:31.568Z,7.34
2018-01-31T13:32:11.238Z,7.32
2018-01-31T13:34:51.587Z,7.29
2018-01-31T13:37:36.639Z,7.27
2018-01-31T13:40:23.175Z,7.28
2018-01-31T13:43:02.699Z,7.24
2018-01-31T13:48:43.342Z,7.23
2018-01-31T13:51:22.970Z,7.25
2018-01-31T13:54:02.586Z,7.24
2018-01-31T13:56:42.375Z,7.24
2018-01-31T13:59:22.110Z,7.23
2018-01-31T14:05:07.065Z,7.26
2018-01-31T14:07:46.737Z,7.25
2018-01-31T14:10:26.392Z,7.23
2018-01-31T14:13:06.139Z,7.23
2018-01-31T14:15:45.848Z,7.22
2018-01-31T14:18:25.332Z,7.19
2018-01-31T14:21:04.635Z,7.17
2018-01-31T14:23:44.181Z,7.12
2018-01-31T14:26:23.816Z,7.09
2018-01-31T14:29:03.274Z,7.09
2018-01-31T14:31:42.960Z,7.09
2018-01-31T14:34:22.596Z,7.08
2018-01-31T14:36:49.842Z,7.08
2018-01-31T14:39:17.099Z,7.10
2018-01-31T14:41:44.624Z,7.12
2018-01-31T14:44:11.847Z,7.13
2018-01-31T14:46:39.115Z,7.12
2018-01-31T14:49:06.638Z,7.11
2018-01-31T14:51:33.863Z,7.12
2018-01-31T14:54:01.173Z,7.14
2018-01-31T14:56:28.445Z,7.12
2018-01-31T14:58:55.643Z,7.11
2018-01-31T15:01:22.867Z,7.09
2018-01-31T15:03:50.084Z,7.09
2018-01-31T15:06:17.263Z,7.09
2018-01-31T15:08:44.727Z,7.10
2018-01-31T15:11:12.160Z,7.08
2018-01-31T15:13:39.507Z,7.08
2018-01-31T15:16:06.777Z,7.10
2018-01-31T15:18:34.035Z,7.11
2018-01-31T15:21:01.472Z,7.12
2018-01-31T15:23:28.748Z,7.11
2018-01-31T15:25:56.835Z,7.19
2018-01-31T15:28:24.079Z,7.23
2018-01-31T15:30:51.312Z,7.22
2018-01-31T15:33:18.690Z,7.23
2018-01-31T15:35:46.171Z,7.26
2018-01-31T15:38:13.584Z,7.28
2018-01-31T15:40:40.895Z,7.30
2018-01-31T15:43:08.144Z,7.33
2018-01-31T15:45:35.411Z,7.34
2018-01-31T15:48:02.651Z,7.36
2018-01-31T15:50:30.113Z,7.39
2018-01-31T15:52:57.345Z,7.38
2018-01-31T15:55:24.614Z,7.33
2018-01-31T15:57:51.897Z,7.32
2018-01-31T16:00:20.175Z,7.33
2018-01-31T16:02:47.430Z,7.38
2018-01-31T16:05:14.742Z,7.34
2018-01-31T16:07:41.962Z,7.32
2018-01-31T16:10:09.250Z,7.33
2018-01-31T16:12:36.665Z,7.28
2018-01-31T16:15:04.001Z,7.32
2018-01-31T16:17:31.796Z,7.18
2018-01-31T16:20:11.553Z,7.12
2018-01-31T16:22:39.438Z,7.08
2018-01-31T16:25:07.349Z,7.05
2018-01-31T16:27:47.048Z,7.02
2018-01-31T16:30:21.670Z,6.98
2018-01-31T16:33:01.158Z,6.91
2018-01-31T16:35:29.034Z,6.92
2018-01-31T16:37:56.915Z,6.87
2018-01-31T16:40:24.755Z,6.89
2018-01-31T16:42:52.642Z,6.92
2018-01-31T16:45:20.567Z,6.89
2018-01-31T16:47:48.423Z,6.93
2018-01-31T16:50:16.240Z,6.93
2018-01-31T16:52:44.313Z,6.92
2018-01-31T16:55:12.111Z,6.96
2018-01-31T16:57:40.046Z,6.99
2018-01-31T17:00:07.881Z,6.94
2018-01-31T17:02:35.781Z,6.86
2018-01-31T17:05:03.720Z,6.86
2018-01-31T17:07:31.564Z,6.82
2018-01-31T17:09:59.315Z,6.80
2018-01-31T17:12:27.168Z,6.76
2018-01-31T17:14:54.966Z,6.75
2018-01-31T17:17:22.856Z,6.73
2018-01-31T17:19:52.631Z,6.73
2018-01-31T17:22:20.419Z,6.76
2018-01-31T17:24:48.261Z,6.72
2018-01-31T17:27:16.025Z,6.73
2018-01-31T17:29:43.898Z,6.77
2018-01-31T17:32:11.758Z,6.75
2018-01-31T17:34:39.583Z,6.72
2018-01-31T17:37:07.390Z,6.72
2018-01-31T17:39:35.203Z,6.71
2018-01-31T17:42:02.974Z,6.69
2018-01-31T17:44:30.886Z,6.71
2018-01-31T17:46:58.810Z,6.68
2018-01-31T17:49:26.953Z,6.67
2018-01-31T17:51:54.704Z,6.62
2018-01-31T17:54:22.568Z,6.63
2018-01-31T17:56:50.525Z,6.64
2018-01-31T17:59:18.651Z,6.66
2018-01-31T18:01:46.449Z,6.63
2018-01-31T18:04:14.269Z,6.62
2018-01-31T18:06:42.221Z,6.65
2018-01-31T18:09:10.000Z,6.64
2018-01-31T18:11:37.891Z,6.66
2018-01-31T18:14:05.681Z,6.65
2018-01-31T18:16:33.645Z,6.70
2018-01-31T18:19:01.393Z,6.62
2018-01-31T18:21:29.231Z,6.64
2018-01-31T18:23:57.059Z,6.68
2018-01-31T18:26:24.870Z,6.68
2018-01-31T18:28:52.668Z,6.62
2018-01-31T18:31:20.507Z,6.61
2018-01-31T18:33:48.310Z,6.61
2018-01-31T18:36:16.173Z,6.66
2018-01-31T18:38:43.926Z,6.67
2018-01-31T18:41:11.775Z,6.23
2018-01-31T18:43:39.565Z,5.16
2018-01-31T18:46:07.532Z,4.82
2018-01-31T18:48:35.313Z,4.66
2018-01-31T18:51:03.071Z,4.63
2018-01-31T18:53:30.941Z,4.57
2018-01-31T18:55:58.739Z,4.60
2018-01-31T18:58:26.590Z,4.62
2018-01-31T19:00:54.427Z,4.68
2018-01-31T19:03:22.233Z,4.68
2018-01-31T19:05:50.045Z,4.72
2018-01-31T19:08:17.924Z,4.73
2018-01-31T19:10:45.751Z,4.75
2018-01-31T19:13:13.628Z,4.72
2018-01-31T19:15:42.508Z,4.78
2018-01-31T19:18:12.767Z,4.77
2018-01-31T19:20:40.783Z,4.80
2018-01-31T19:23:15.674Z,4.85
2018-01-31T19:25:47.446Z,4.80
2018-01-31T19:28:17.302Z,4.85
2018-01-31T19:30:48.752Z,4.89
2018-01-31T19:33:17.115Z,4.91
2018-01-31T19:35:47.356Z,4.90
2018-01-31T19:38:19.585Z,4.92
2018-01-31T19:40:50.784Z,4.88
2018-01-31T19:43:20.956Z,4.79
2018-01-31T19:45:51.645Z,4.77
2018-01-31T19:48:20.708Z,4.81
2018-01-31T19:50:50.324Z,4.91
2018-01-31T19:53:19.788Z,4.86
2018-01-31T19:55:48.516Z,4.75
2018-01-31T19:58:18.874Z,4.72
2018-01-31T20:00:47.839Z,4.74
2018-01-31T20:03:18.355Z,4.80
2018-01-31T20:05:47.531Z,4.79
2018-01-31T20:08:20.698Z,4.72
2018-01-31T20:10:51.594Z,4.76
2018-01-31T20:13:21.608Z,4.78
2018-01-31T20:15:51.959Z,4.79
2018-01-31T20:18:21.075Z,4.79
2018-01-31T20:20:50.835Z,4.77
2018-01-31T20:23:19.498Z,4.69
2018-01-31T20:25:48.818Z,4.76
2018-01-31T20:28:20.474Z,4.76
2018-01-31T20:30:50.890Z,4.73
2018-01-31T20:33:19.624Z,4.71
2018-01-31T20:35:49.010Z,4.61
2018-01-31T20:38:20.188Z,4.69
2018-01-31T20:40:49.224Z,4.67
2018-01-31T20:43:20.428Z,4.65
2018-01-31T20:45:52.136Z,4.67
2018-01-31T20:48:26.213Z,4.61
2018-01-31T20:50:56.452Z,4.59
2018-01-31T20:53:27.716Z,4.51
2018-01-31T20:56:02.313Z,4.53
2018-01-31T20:58:33.203Z,4.48
2018-01-31T21:01:01.178Z,4.48
2018-01-31T21:03:37.508Z,4.47
2018-01-31T21:06:16.217Z,4.48
2018-01-31T21:08:44.040Z,4.54
2018-01-31T21:11:12.240Z,4.51
2018-01-31T21:13:40.054Z,4.48
2018-01-31T21:16:07.972Z,4.44
2018-01-31T21:18:35.892Z,4.48
2018-01-31T21:21:03.755Z,4.45
2018-01-31T21:23:31.609Z,4.49
2018-01-31T21:25:59.414Z,4.46
2018-01-31T21:28:27.258Z,4.43
2018-01-31T21:30:55.032Z,4.42
2018-01-31T21:33:22.901Z,4.35
2018-01-31T21:35:50.696Z,4.38
2018-01-31T21:38:18.583Z,4.41
2018-01-31T21:40:46.346Z,4.41
2018-01-31T21:43:14.099Z,4.22
2018-01-31T21:45:42.125Z,4.20
2018-01-31T21:48:09.945Z,4.13
2018-01-31T21:50:37.767Z,4.04
2018-01-31T21:53:06.116Z,4.06
2018-01-31T21:55:34.093Z,4.04
2018-01-31T21:58:02.285Z,3.89
2018-01-31T22:00:30.194Z,3.88
2018-01-31T22:02:58.016Z,3.78
2018-01-31T22:05:25.776Z,3.78
2018-01-31T22:07:53.610Z,3.69
2018-01-31T22:10:21.406Z,3.59
2018-01-31T22:12:49.302Z,3.62
2018-01-31T22:15:17.244Z,3.48
2018-01-31T22:17:45.383Z,3.42
2018-01-31T22:20:13.179Z,3.36
2018-01-31T22:22:41.134Z,3.30
2018-01-31T22:25:09.144Z,3.26
2018-01-31T22:27:37.019Z,3.33
2018-01-31T22:30:04.840Z,3.29
2018-01-31T22:32:32.654Z,3.22
2018-01-31T22:35:00.443Z,3.21
2018-01-31T22:37:28.299Z,3.21
2018-01-31T22:39:56.081Z,3.19
2018-01-31T22:42:23.863Z,3.20
2018-01-31T22:44:51.702Z,3.30
2018-01-31T22:47:19.521Z,3.33
2018-01-31T22:49:47.343Z,3.47
2018-01-31T22:52:15.116Z,3.45
2018-01-31T22:54:42.927Z,3.31
2018-01-31T22:57:10.742Z,3.22
2018-01-31T22:59:38.616Z,3.19
2018-01-31T23:02:06.424Z,3.17
2018-01-31T23:04:34.257Z,3.13
2018-01-31T23:07:02.061Z,3.13
2018-01-31T23:09:29.913Z,3.13
2018-01-31T23:11:57.756Z,3.08
2018-01-31T23:14:31.179Z,3.16
2018-01-31T23:16:59.065Z,3.30
2018-01-31T23:19:26.879Z,3.36
2018-01-31T23:21:54.664Z,3.51
2018-01-31T23:24:22.555Z,3.50
2018-01-31T23:26:50.406Z,3.48
2018-01-31T23:29:18.220Z,3.55
2018-01-31T23:31:46.029Z,3.53
2018-01-31T23:34:13.791Z,3.51
2018-01-31T23:36:41.616Z,3.55
2018-01-31T23:39:09.365Z,3.59
2018-01-31T23:41:37.211Z,3.58
2018-01-31T23:44:04.951Z,3.60
2018-01-31T23:46:32.771Z,3.57
2018-01-31T23:49:00.572Z,3.56
2018-01-31T23:51:28.463Z,3.55
2018-01-31T23:53:56.307Z,3.61
2018-01-31T23:56:24.138Z,3.60
2018-01-31T23:58:51.917Z,3.64
